Time;durP1;ratioP1;P1;durP2;ratioP2;P2;SDS_P1;SDS_P2;PMS_P1;PMS_P2;Temp;Humidity;BMP_temperature;BMP_pressure;BME280_temperature;BME280_humidity;BME280_pressure;Samples;Min_cycle;Max_cycle;Signal;HPM_P1;HPM_P2
2021/01/22 00:02:07;;;;;;;198.60;77.83;;;4.40;92.90;;;;;;5009996;28;20222;-63
2021/01/22 00:04:33;;;;;;;172.13;73.93;;;4.40;92.80;;;;;;5009419;28;20219;-63
2021/01/22 00:07:03;;;;;;;175.30;76.67;;;4.40;92.90;;;;;;5010469;28;20573;-63
2021/01/22 00:09:29;;;;;;;194.13;79.00;;;4.40;92.90;;;;;;5012067;28;20302;-63
2021/01/22 00:11:55;;;;;;;209.70;85.43;;;4.50;92.90;;;;;;5014960;28;20215;-63
2021/01/22 00:14:22;;;;;;;197.90;79.80;;;4.50;92.90;;;;;;5013241;28;20231;-63
2021/01/22 00:16:48;;;;;;;197.40;79.90;;;4.50;92.90;;;;;;5014696;28;20212;-63
2021/01/22 00:19:15;;;;;;;184.97;79.03;;;4.50;93.00;;;;;;5013714;28;20739;-63
2021/01/22 00:21:41;;;;;;;205.97;84.30;;;4.60;93.00;;;;;;5030100;28;20204;-63
2021/01/22 00:24:08;;;;;;;182.47;76.57;;;4.60;93.00;;;;;;5014118;28;20215;-63
2021/01/22 00:26:35;;;;;;;217.57;85.33;;;4.70;93.00;;;;;;5029728;28;20222;-63
2021/01/22 00:29:01;;;;;;;205.53;80.23;;;4.70;92.90;;;;;;5029346;28;20987;-63
2021/01/22 00:31:28;;;;;;;208.43;81.93;;;4.70;92.90;;;;;;5013604;28;20216;-63
2021/01/22 00:33:54;;;;;;;211.47;81.20;;;4.70;92.80;;;;;;5029263;28;20246;-63
2021/01/22 00:36:21;;;;;;;214.67;82.00;;;4.70;92.80;;;;;;5012996;28;20214;-63
2021/01/22 00:38:48;;;;;;;210.90;84.40;;;4.70;92.80;;;;;;5029415;28;20239;-63
2021/01/22 00:41:14;;;;;;;219.57;84.80;;;4.70;92.80;;;;;;5013054;28;20208;-63
2021/01/22 00:43:41;;;;;;;238.87;87.13;;;4.60;92.80;;;;;;5014575;28;20528;-63
2021/01/22 00:46:08;;;;;;;207.20;85.60;;;4.70;92.80;;;;;;5015040;28;20211;-63
2021/01/22 00:48:38;;;;;;;214.77;85.13;;;4.70;92.90;;;;;;5008658;28;20211;-63
2021/01/22 00:51:04;;;;;;;221.33;83.10;;;4.70;92.90;;;;;;5014340;28;20211;-63
2021/01/22 00:53:31;;;;;;;207.73;85.20;;;4.70;93.00;;;;;;5012453;28;20227;-63
2021/01/22 00:55:57;;;;;;;202.07;82.50;;;4.70;93.00;;;;;;5014129;28;20212;-63
2021/01/22 00:58:24;;;;;;;211.57;79.93;;;4.70;93.00;;;;;;5000029;28;20222;-64
2021/01/22 01:00:50;;;;;;;210.80;81.50;;;4.70;93.00;;;;;;5013241;28;20215;-64
2021/01/22 01:03:17;;;;;;;200.27;82.67;;;4.60;93.00;;;;;;5012888;28;20212;-63
2021/01/22 01:05:44;;;;;;;202.87;79.73;;;4.60;93.00;;;;;;5013188;28;20231;-63
2021/01/22 01:08:10;;;;;;;202.80;79.50;;;4.60;93.00;;;;;;5013488;28;20224;-63
2021/01/22 01:10:37;;;;;;;204.57;79.77;;;4.60;93.10;;;;;;5014500;28;20528;-63
2021/01/22 01:13:03;;;;;;;200.77;78.93;;;4.50;93.10;;;;;;5013226;28;20227;-63
2021/01/22 01:15:30;;;;;;;200.47;81.83;;;4.50;93.10;;;;;;5013224;28;20208;-63
2021/01/22 01:17:57;;;;;;;210.03;81.33;;;4.40;93.10;;;;;;5013264;28;20235;-63
2021/01/22 01:20:23;;;;;;;216.50;82.17;;;4.40;93.20;;;;;;5012334;28;20261;-63
2021/01/22 01:22:51;;;;;;;214.83;82.40;;;4.30;93.20;;;;;;5012505;28;20218;-63
2021/01/22 01:25:17;;;;;;;248.13;90.07;;;4.30;93.20;;;;;;5013239;28;20550;-63
2021/01/22 01:27:47;;;;;;;219.87;83.07;;;4.30;93.30;;;;;;5008487;28;20204;-63
2021/01/22 01:30:14;;;;;;;233.10;82.73;;;4.30;93.30;;;;;;5012306;28;20210;-63
2021/01/22 01:32:41;;;;;;;234.17;87.80;;;4.30;93.40;;;;;;5012870;28;20223;-63
2021/01/22 01:35:08;;;;;;;237.83;87.77;;;4.30;93.40;;;;;;5014341;28;20204;-63
2021/01/22 01:37:35;;;;;;;244.17;87.90;;;4.30;93.40;;;;;;5013158;28;20516;-63
2021/01/22 01:40:03;;;;;;;231.23;86.80;;;4.30;93.40;;;;;;5012974;28;20218;-63
2021/01/22 01:42:30;;;;;;;233.63;86.93;;;4.30;93.60;;;;;;5013410;28;20212;-63
2021/01/22 01:44:57;;;;;;;233.43;86.27;;;4.30;93.60;;;;;;5003895;28;20220;-63
2021/01/22 01:47:24;;;;;;;232.27;84.73;;;4.30;93.70;;;;;;5013810;28;20560;-63
2021/01/22 01:49:50;;;;;;;224.60;87.73;;;4.30;93.80;;;;;;5013297;28;20835;-63
2021/01/22 01:52:17;;;;;;;225.67;84.53;;;4.30;93.70;;;;;;5012900;28;20207;-63
2021/01/22 01:54:44;;;;;;;213.50;86.37;;;4.30;93.80;;;;;;5012818;28;20243;-63
2021/01/22 01:57:14;;;;;;;219.37;83.47;;;4.40;93.80;;;;;;5013059;28;20311;-70
2021/01/22 01:59:41;;;;;;;221.03;88.07;;;4.40;93.80;;;;;;5012923;28;20200;-63
2021/01/22 02:02:09;;;;;;;242.40;83.33;;;4.50;93.70;;;;;;5028345;28;20302;-63
2021/01/22 02:04:37;;;;;;;212.70;81.67;;;4.50;93.70;;;;;;5012353;28;20628;-68
2021/01/22 02:07:16;;;;;;;221.60;85.33;;;4.50;93.60;;;;;;5012875;28;20207;-63
2021/01/22 02:09:43;;;;;;;234.20;85.90;;;4.50;93.60;;;;;;5006856;28;20608;-63
2021/01/22 02:12:10;;;;;;;226.87;84.17;;;4.50;93.60;;;;;;5011747;28;20239;-63
2021/01/22 02:14:38;;;;;;;221.67;85.50;;;4.50;93.60;;;;;;5011979;28;20240;-63
2021/01/22 02:17:04;;;;;;;215.73;81.87;;;4.50;93.60;;;;;;5012148;28;20212;-63
2021/01/22 02:20:05;;;;;;;207.90;82.43;;;4.60;93.60;;;;;;5012683;28;20254;-63
2021/01/22 02:22:33;;;;;;;214.20;83.10;;;4.60;93.60;;;;;;5008443;28;20243;-63
2021/01/22 02:25:00;;;;;;;201.20;78.73;;;4.60;93.60;;;;;;5008662;28;20238;-63
2021/01/22 02:27:28;;;;;;;253.23;87.07;;;4.60;93.60;;;;;;5007303;28;20215;-63
2021/01/22 02:29:56;;;;;;;227.73;85.37;;;4.60;93.60;;;;;;5012415;28;20540;-63
2021/01/22 02:32:25;;;;;;;236.73;86.33;;;4.60;93.50;;;;;;5010988;28;20215;-63
2021/01/22 02:34:56;;;;;;;232.57;86.03;;;4.60;93.50;;;;;;5012791;28;20250;-63
2021/01/22 02:37:23;;;;;;;220.47;85.40;;;4.50;93.60;;;;;;5012295;28;20555;-63
2021/01/22 02:39:52;;;;;;;253.50;89.40;;;4.50;93.70;;;;;;5011187;28;20258;-63
2021/01/22 02:42:22;;;;;;;253.17;91.17;;;4.50;93.80;;;;;;5027514;28;20512;-63
2021/01/22 02:44:50;;;;;;;255.93;93.07;;;4.50;93.80;;;;;;5011331;28;20644;-63
2021/01/22 02:47:18;;;;;;;241.53;92.03;;;4.50;93.90;;;;;;5012132;28;20234;-63
2021/01/22 02:49:45;;;;;;;233.00;90.40;;;4.50;93.80;;;;;;5012135;28;20246;-63
2021/01/22 02:52:11;;;;;;;237.40;88.90;;;4.50;93.80;;;;;;5011353;28;20204;-63
2021/01/22 02:54:38;;;;;;;237.57;91.23;;;4.50;93.90;;;;;;5011848;28;20235;-63
2021/01/22 02:57:29;;;;;;;245.03;93.47;;;4.50;93.90;;;;;;5011070;28;20279;-63
2021/01/22 03:00:11;;;;;;;223.73;88.20;;;4.50;94.00;;;;;;5026094;28;20290;-63
2021/01/22 03:03:01;;;;;;;248.37;93.10;;;4.50;94.00;;;;;;5011553;28;20211;-63
2021/01/22 03:05:31;;;;;;;245.63;91.27;;;4.50;94.00;;;;;;4991779;28;20230;-63
2021/01/22 03:08:08;;;;;;;242.23;91.60;;;4.50;94.00;;;;;;5011904;28;20616;-63
2021/01/22 03:10:37;;;;;;;239.00;91.67;;;4.50;94.00;;;;;;5008022;28;20622;-63
2021/01/22 03:13:04;;;;;;;251.10;92.57;;;4.50;94.00;;;;;;5011801;28;20212;-63
2021/01/22 03:15:33;;;;;;;245.73;95.53;;;4.50;94.10;;;;;;5011751;28;20222;-63
2021/01/22 03:18:17;;;;;;;241.20;89.30;;;4.50;94.10;;;;;;5010567;28;20208;-63
2021/01/22 03:20:46;;;;;;;255.20;92.03;;;4.50;94.10;;;;;;5011489;28;20212;-63
2021/01/22 03:23:14;;;;;;;250.03;91.77;;;4.60;94.10;;;;;;5010980;28;20215;-63
2021/01/22 03:25:41;;;;;;;246.50;91.30;;;4.60;94.10;;;;;;5012384;28;20251;-63
2021/01/22 03:28:09;;;;;;;235.00;87.67;;;4.70;94.10;;;;;;5012576;28;20219;-63
2021/01/22 03:30:36;;;;;;;289.23;95.27;;;4.70;94.10;;;;;;4997104;28;20220;-63
2021/01/22 03:33:04;;;;;;;276.23;94.53;;;4.70;94.10;;;;;;5009708;28;20212;-63
2021/01/22 03:35:31;;;;;;;276.47;94.43;;;4.70;94.10;;;;;;5011187;28;20204;-63
2021/01/22 03:37:57;;;;;;;260.50;93.87;;;4.70;94.10;;;;;;5011599;28;20235;-63
2021/01/22 03:40:25;;;;;;;245.40;87.13;;;4.80;94.10;;;;;;5011562;28;20219;-63
2021/01/22 03:42:52;;;;;;;263.00;91.67;;;4.80;94.10;;;;;;5028309;28;20631;-63
2021/01/22 03:45:19;;;;;;;220.00;89.87;;;4.80;94.10;;;;;;5014536;28;20637;-63
2021/01/22 03:47:45;;;;;;;256.80;90.93;;;4.80;94.00;;;;;;5015216;28;20512;-63
2021/01/22 03:50:12;;;;;;;238.43;91.93;;;4.80;94.10;;;;;;5014759;28;20216;-63
2021/01/22 03:52:39;;;;;;;242.37;91.03;;;4.80;94.10;;;;;;5015321;28;20640;-63
2021/01/22 03:55:07;;;;;;;261.57;92.90;;;4.80;94.10;;;;;;5015322;28;20239;-63
2021/01/22 03:57:33;;;;;;;233.70;89.73;;;4.80;94.10;;;;;;5014446;28;20216;-63
2021/01/22 04:00:03;;;;;;;244.30;90.00;;;4.80;94.00;;;;;;5015070;28;20216;-63
2021/01/22 04:02:30;;;;;;;254.47;94.20;;;4.80;94.00;;;;;;5013431;28;20706;-63
2021/01/22 04:04:56;;;;;;;260.53;94.17;;;4.80;94.00;;;;;;5011480;28;20231;-63
2021/01/22 04:07:23;;;;;;;245.73;91.07;;;4.80;94.00;;;;;;5012873;28;20219;-63
2021/01/22 04:09:50;;;;;;;258.57;92.13;;;4.70;94.00;;;;;;5027928;28;20208;-63
2021/01/22 04:12:16;;;;;;;260.60;95.47;;;4.70;94.00;;;;;;5014912;28;20226;-63
2021/01/22 04:14:43;;;;;;;258.83;94.13;;;4.70;94.00;;;;;;5012104;28;20231;-63
2021/01/22 04:17:09;;;;;;;269.03;95.97;;;4.70;94.10;;;;;;5013877;28;20211;-63
2021/01/22 04:19:36;;;;;;;289.07;97.80;;;4.70;94.10;;;;;;5015207;28;20215;-63
2021/01/22 04:22:03;;;;;;;264.03;96.60;;;4.70;94.10;;;;;;5014103;28;20694;-63
2021/01/22 04:24:29;;;;;;;265.13;94.37;;;4.70;94.10;;;;;;5014652;28;20223;-63
2021/01/22 04:26:56;;;;;;;271.90;101.97;;;4.70;94.10;;;;;;5013734;28;20208;-63
2021/01/22 04:29:22;;;;;;;278.73;98.93;;;4.60;94.10;;;;;;5014382;28;20233;-63
2021/01/22 04:31:49;;;;;;;294.03;97.00;;;4.60;94.10;;;;;;5011930;28;20212;-63
2021/01/22 04:34:16;;;;;;;289.47;102.53;;;4.60;94.10;;;;;;5014148;28;20694;-63
2021/01/22 04:36:42;;;;;;;282.00;98.23;;;4.60;94.10;;;;;;5014200;28;20219;-63
2021/01/22 04:39:09;;;;;;;277.37;95.60;;;4.60;94.10;;;;;;5011780;28;20240;-63
2021/01/22 04:41:36;;;;;;;304.33;96.83;;;4.60;94.10;;;;;;5014412;28;20520;-63
2021/01/22 04:44:03;;;;;;;290.90;98.43;;;4.70;94.20;;;;;;5014336;28;20290;-63
2021/01/22 04:46:35;;;;;;;270.37;95.90;;;4.70;94.10;;;;;;5013306;28;20226;-63
2021/01/22 04:49:05;;;;;;;292.80;100.40;;;4.70;94.10;;;;;;5005759;28;20213;-63
2021/01/22 04:51:36;;;;;;;268.80;96.93;;;4.80;94.10;;;;;;5013837;28;20232;-63
2021/01/22 04:54:09;;;;;;;255.27;94.80;;;4.80;94.10;;;;;;5012677;28;20746;-63
2021/01/22 04:56:39;;;;;;;294.63;96.10;;;4.80;94.10;;;;;;5014259;28;20618;-63
2021/01/22 04:59:14;;;;;;;276.33;94.13;;;4.80;94.10;;;;;;5013142;28;20212;-63
2021/01/22 05:01:41;;;;;;;288.50;98.50;;;4.80;94.10;;;;;;5013483;28;20250;-63
2021/01/22 05:04:09;;;;;;;274.93;99.17;;;4.80;94.00;;;;;;5013524;28;20215;-63
2021/01/22 05:06:37;;;;;;;286.57;98.43;;;4.80;94.00;;;;;;5007922;28;20602;-63
2021/01/22 05:09:04;;;;;;;258.70;96.10;;;4.90;94.00;;;;;;5014416;28;20295;-63
2021/01/22 05:11:31;;;;;;;291.03;99.17;;;4.80;94.00;;;;;;5013898;28;20216;-63
2021/01/22 05:13:57;;;;;;;282.27;100.03;;;4.90;94.00;;;;;;5029185;28;20253;-63
2021/01/22 05:16:24;;;;;;;306.00;101.60;;;4.90;94.00;;;;;;5013765;28;20222;-63
2021/01/22 05:18:51;;;;;;;279.93;100.27;;;4.90;94.00;;;;;;5029356;28;20212;-63
2021/01/22 05:21:20;;;;;;;263.43;99.27;;;4.90;94.00;;;;;;5012848;28;20645;-63
2021/01/22 05:23:47;;;;;;;298.80;99.93;;;4.90;94.10;;;;;;5029678;28;20219;-63
2021/01/22 05:26:16;;;;;;;286.33;100.67;;;4.90;94.00;;;;;;5013571;28;20231;-63
2021/01/22 05:28:45;;;;;;;302.87;99.30;;;4.90;94.00;;;;;;5007994;28;20226;-63
2021/01/22 05:31:13;;;;;;;338.63;102.03;;;5.00;94.00;;;;;;5027009;28;20215;-63
2021/01/22 05:33:53;;;;;;;319.33;106.17;;;4.90;94.00;;;;;;5011996;28;20242;-63
2021/01/22 05:36:24;;;;;;;325.93;102.13;;;5.00;94.00;;;;;;5012743;28;20204;-63
2021/01/22 05:38:52;;;;;;;326.67;104.60;;;5.00;94.00;;;;;;5027806;28;20578;-63
2021/01/22 05:41:19;;;;;;;294.73;103.07;;;5.00;94.00;;;;;;5011123;28;20211;-63
2021/01/22 05:43:46;;;;;;;326.50;101.87;;;5.00;94.00;;;;;;5008027;28;20216;-63
2021/01/22 05:46:18;;;;;;;330.17;101.00;;;5.00;94.00;;;;;;5011733;28;20211;-63
2021/01/22 05:48:44;;;;;;;319.00;101.40;;;5.00;94.00;;;;;;5013346;28;20211;-63
2021/01/22 05:51:12;;;;;;;306.23;101.27;;;5.00;94.00;;;;;;5012944;28;20574;-63
2021/01/22 05:53:48;;;;;;;292.40;96.50;;;5.10;94.00;;;;;;5012801;28;20322;-63
2021/01/22 05:56:18;;;;;;;327.00;100.70;;;5.00;94.00;;;;;;5012767;28;20204;-63
2021/01/22 05:58:47;;;;;;;328.93;103.23;;;5.00;94.00;;;;;;5013251;28;20196;-63
2021/01/22 06:01:21;;;;;;;322.33;101.80;;;5.10;94.00;;;;;;5013377;28;20200;-63
2021/01/22 06:03:53;;;;;;;335.73;102.20;;;5.10;94.00;;;;;;5027688;28;20226;-63
2021/01/22 06:06:20;;;;;;;328.17;103.37;;;5.10;94.00;;;;;;5012473;28;20242;-63
2021/01/22 06:08:47;;;;;;;327.30;100.43;;;5.10;94.00;;;;;;5013423;28;20222;-63
2021/01/22 06:11:16;;;;;;;323.87;100.73;;;5.10;94.00;;;;;;5011951;28;20294;-63
2021/01/22 06:13:48;;;;;;;358.03;104.13;;;5.10;94.00;;;;;;5013345;28;20647;-63
2021/01/22 06:16:25;;;;;;;313.57;101.30;;;5.10;94.00;;;;;;5028172;28;20203;-63
2021/01/22 06:19:09;;;;;;;314.70;101.23;;;5.10;94.10;;;;;;5013462;28;20343;-63
2021/01/22 06:21:39;;;;;;;357.40;105.13;;;5.10;94.00;;;;;;5012649;28;20623;-63
2021/01/22 06:24:07;;;;;;;353.07;101.53;;;5.10;94.00;;;;;;5008588;28;20218;-63
2021/01/22 06:26:39;;;;;;;367.93;105.60;;;5.10;94.00;;;;;;5012947;28;20344;-63
2021/01/22 06:29:09;;;;;;;337.90;106.57;;;5.10;94.00;;;;;;5011419;28;20212;-62
2021/01/22 06:31:41;;;;;;;338.33;103.80;;;5.10;94.00;;;;;;5013191;28;20227;-62
2021/01/22 06:34:08;;;;;;;346.23;103.73;;;5.10;94.00;;;;;;5013124;28;20228;-63
2021/01/22 06:36:35;;;;;;;333.23;104.73;;;5.10;94.10;;;;;;5012796;28;20239;-62
2021/01/22 06:39:04;;;;;;;390.83;104.40;;;5.10;94.00;;;;;;5012379;28;20235;-62
2021/01/22 06:41:33;;;;;;;365.00;104.30;;;5.10;94.00;;;;;;5012141;28;20255;-62
2021/01/22 06:44:00;;;;;;;337.17;105.27;;;5.10;94.00;;;;;;5011855;28;20211;-62
2021/01/22 06:46:29;;;;;;;312.07;101.00;;;5.10;94.10;;;;;;5003593;28;20222;-62
2021/01/22 06:48:57;;;;;;;359.93;106.47;;;5.10;94.10;;;;;;5012609;28;20247;-62
2021/01/22 06:51:25;;;;;;;345.10;105.10;;;5.10;94.00;;;;;;5012164;28;20318;-62
2021/01/22 06:54:20;;;;;;;352.20;105.23;;;5.20;94.40;;;;;;5011292;28;20322;-63
2021/01/22 06:56:56;;;;;;;451.85;134.50;;;5.20;94.10;;;;;;5006316;28;21082;-65
2021/01/22 06:59:24;;;;;;;343.53;106.73;;;5.10;94.30;;;;;;5010345;28;20270;-63
2021/01/22 07:01:52;;;;;;;391.00;108.70;;;5.20;94.20;;;;;;5027434;28;20314;-63
2021/01/22 07:04:45;;;;;;;344.23;103.13;;;5.20;94.40;;;;;;5026684;28;20208;-66
2021/01/22 07:07:12;;;;;;;347.07;104.23;;;5.20;94.10;;;;;;5007124;28;20655;-61
2021/01/22 07:09:46;;;;;;;387.50;109.27;;;5.20;94.10;;;;;;5012796;28;20254;-61
2021/01/22 07:12:37;;;;;;;359.27;108.00;;;5.20;94.10;;;;;;5011293;28;20557;-62
2021/01/22 07:15:19;;;;;;;349.07;105.60;;;5.20;94.10;;;;;;5009644;28;20239;-65
2021/01/22 07:17:51;;;;;;;344.60;103.63;;;5.30;94.10;;;;;;5009179;28;20273;-64
2021/01/22 07:20:18;;;;;;;394.47;106.93;;;5.30;94.00;;;;;;5030256;28;20207;-62
2021/01/22 07:22:54;;;;;;;341.63;100.13;;;5.30;94.00;;;;;;5015005;28;20538;-65
2021/01/22 07:25:40;;;;;;;366.97;104.83;;;5.30;94.00;;;;;;5015895;28;20651;-64
2021/01/22 07:28:12;;;;;;;350.53;104.80;;;5.30;94.00;;;;;;5029835;28;20302;-65
2021/01/22 07:30:40;;;;;;;397.97;104.93;;;5.40;94.00;;;;;;5015874;28;20219;-65
2021/01/22 07:33:25;;;;;;;361.33;108.30;;;5.40;94.00;;;;;;5016240;28;20640;-65
2021/01/22 07:36:13;;;;;;;425.63;110.37;;;5.50;94.00;;;;;;5012145;28;20208;-65
2021/01/22 07:38:41;;;;;;;341.33;103.03;;;5.50;93.90;;;;;;5013950;28;20824;-66
2021/01/22 07:41:09;;;;;;;390.00;109.77;;;5.50;93.90;;;;;;5015988;28;20219;-66
2021/01/22 07:43:37;;;;;;;419.77;110.83;;;5.60;93.90;;;;;;5008605;28;20207;-65
2021/01/22 07:46:12;;;;;;;363.57;108.20;;;5.60;93.80;;;;;;5015973;28;20220;-64
2021/01/22 07:48:41;;;;;;;325.37;104.57;;;5.60;93.80;;;;;;5011964;28;20207;-63
2021/01/22 07:51:38;;;;;;;374.73;108.43;;;5.60;93.80;;;;;;5014532;28;20208;-65
2021/01/22 07:54:05;;;;;;;332.37;103.87;;;5.50;93.80;;;;;;5011745;28;20227;-65
2021/01/22 07:56:39;;;;;;;383.80;110.40;;;5.60;93.90;;;;;;5014876;28;20208;-66
2021/01/22 07:59:13;;;;;;;342.37;101.33;;;5.60;93.90;;;;;;5016121;28;20668;-64
2021/01/22 08:01:39;;;;;;;364.87;108.03;;;5.60;93.90;;;;;;5015452;28;20214;-66
2021/01/22 08:04:07;;;;;;;395.43;113.27;;;5.60;93.90;;;;;;5017022;28;20246;-66
2021/01/22 08:06:47;;;;;;;354.00;108.63;;;5.70;93.90;;;;;;5015979;28;20315;-69
2021/01/22 08:09:17;;;;;;;357.13;107.77;;;5.70;93.90;;;;;;5029539;28;20203;-63
2021/01/22 08:11:52;;;;;;;349.73;109.07;;;5.70;93.80;;;;;;5011232;28;20262;-63
2021/01/22 08:14:30;;;;;;;368.10;111.27;;;5.80;93.80;;;;;;5014925;28;20250;-67
2021/01/22 08:16:57;;;;;;;348.03;109.77;;;5.80;93.80;;;;;;5015313;28;20196;-68
2021/01/22 08:19:25;;;;;;;330.97;104.63;;;5.80;93.80;;;;;;5008968;28;20281;-68
2021/01/22 08:21:53;;;;;;;310.70;103.00;;;5.90;93.80;;;;;;5015432;28;20207;-65
2021/01/22 08:24:20;;;;;;;423.40;110.77;;;6.00;93.70;;;;;;5014721;28;20212;-67
2021/01/22 08:27:01;;;;;;;443.50;113.20;;;6.00;93.60;;;;;;5015619;28;20223;-66
2021/01/22 08:29:34;;;;;;;356.87;108.87;;;5.90;93.50;;;;;;5021456;28;20220;-64
2021/01/22 08:32:03;;;;;;;472.47;116.83;;;5.90;93.60;;;;;;5015640;28;20664;-65
2021/01/22 08:34:32;;;;;;;503.90;121.13;;;5.90;93.70;;;;;;5030458;28;20569;-67
2021/01/22 08:36:59;;;;;;;467.77;117.63;;;5.80;93.70;;;;;;5015545;28;20234;-68
2021/01/22 08:39:26;;;;;;;574.03;126.63;;;5.80;93.70;;;;;;5014877;28;20244;-68
2021/01/22 08:41:52;;;;;;;447.43;113.40;;;5.70;93.80;;;;;;5014443;28;20220;-67
2021/01/22 08:44:28;;;;;;;494.97;117.07;;;5.80;93.90;;;;;;5010258;28;20211;-67
2021/01/22 08:46:57;;;;;;;401.77;114.07;;;5.80;94.00;;;;;;5014610;28;20204;-67
2021/01/22 08:49:24;;;;;;;403.53;113.83;;;5.90;94.00;;;;;;5014851;28;20572;-66
2021/01/22 08:51:50;;;;;;;416.73;116.50;;;6.00;94.00;;;;;;5013520;28;20210;-64
2021/01/22 08:54:19;;;;;;;395.00;113.60;;;6.10;93.90;;;;;;5014397;28;20236;-65
2021/01/22 08:57:03;;;;;;;480.30;123.17;;;6.10;93.80;;;;;;5013704;28;20631;-65
2021/01/22 09:00:05;;;;;;;370.03;112.10;;;6.20;93.70;;;;;;5002611;28;20524;-65
2021/01/22 09:02:35;;;;;;;373.17;109.67;;;6.20;93.70;;;;;;5006071;28;20215;-65
2021/01/22 09:05:10;;;;;;;466.83;116.90;;;6.30;93.80;;;;;;5013514;28;20304;-67
2021/01/22 09:07:37;;;;;;;479.17;115.50;;;6.30;93.80;;;;;;5029148;28;20237;-64
2021/01/22 09:10:05;;;;;;;666.57;130.23;;;6.40;93.70;;;;;;5014045;28;20215;-65
2021/01/22 09:12:33;;;;;;;381.63;109.53;;;6.40;93.60;;;;;;5013354;28;20696;-64
2021/01/22 09:15:03;;;;;;;441.90;117.40;;;6.30;93.70;;;;;;5014119;28;20228;-65
2021/01/22 09:17:36;;;;;;;596.50;128.90;;;6.30;93.70;;;;;;5008375;28;20616;-63
2021/01/22 09:20:07;;;;;;;575.50;120.80;;;6.40;93.70;;;;;;5013907;28;20269;-63
2021/01/22 09:22:35;;;;;;;612.80;130.30;;;6.40;93.70;;;;;;5018632;28;20407;-64
2021/01/22 09:25:04;;;;;;;372.73;106.40;;;6.40;93.70;;;;;;5014313;28;20226;-67
2021/01/22 09:27:33;;;;;;;405.43;109.57;;;6.40;93.70;;;;;;5014327;28;20614;-69
2021/01/22 09:30:01;;;;;;;508.63;120.23;;;6.50;93.80;;;;;;5029779;28;20203;-67
2021/01/22 09:32:29;;;;;;;489.30;121.97;;;6.50;93.70;;;;;;5011587;28;20234;-70
2021/01/22 09:34:56;;;;;;;449.87;118.30;;;6.50;93.60;;;;;;5012907;28;20314;-67
2021/01/22 09:37:23;;;;;;;322.60;101.67;;;6.50;93.60;;;;;;5013195;28;20204;-66
2021/01/22 09:39:50;;;;;;;376.27;115.47;;;6.60;93.70;;;;;;5012790;28;20244;-66
2021/01/22 09:42:16;;;;;;;363.93;111.27;;;6.60;93.70;;;;;;5010439;28;20208;-67
2021/01/22 09:44:43;;;;;;;519.27;120.20;;;6.70;93.70;;;;;;5008057;28;20212;-67
2021/01/22 09:47:09;;;;;;;324.73;104.30;;;6.70;93.60;;;;;;5011986;28;20219;-66
2021/01/22 09:49:36;;;;;;;432.80;112.93;;;6.80;93.50;;;;;;5013191;28;20219;-67
2021/01/22 09:52:03;;;;;;;325.10;103.03;;;6.80;93.50;;;;;;5011860;28;20212;-66
2021/01/22 09:54:29;;;;;;;475.57;115.80;;;6.80;93.40;;;;;;5012849;28;20251;-67
2021/01/22 09:56:56;;;;;;;315.37;103.10;;;6.80;93.40;;;;;;5013580;28;20230;-67
2021/01/22 09:59:22;;;;;;;347.03;106.63;;;6.70;93.40;;;;;;5013713;28;20218;-66
2021/01/22 10:01:49;;;;;;;284.27;94.17;;;6.70;93.50;;;;;;5013039;28;20620;-65
2021/01/22 10:04:16;;;;;;;273.67;96.83;;;6.70;93.50;;;;;;5011630;28;20211;-65
2021/01/22 10:06:42;;;;;;;339.67;101.93;;;6.70;93.50;;;;;;5028733;28;20664;-66
2021/01/22 10:09:09;;;;;;;350.33;106.00;;;6.70;93.60;;;;;;5013521;28;20215;-67
2021/01/22 10:11:38;;;;;;;352.23;105.50;;;6.70;93.60;;;;;;5012587;28;20612;-66
2021/01/22 10:14:04;;;;;;;332.60;103.17;;;6.70;93.60;;;;;;5012946;28;20683;-64
2021/01/22 10:16:31;;;;;;;315.63;100.63;;;6.70;93.60;;;;;;5028233;28;20668;-66
2021/01/22 10:18:58;;;;;;;303.00;100.30;;;6.80;93.60;;;;;;5009364;28;20247;-66
2021/01/22 10:21:25;;;;;;;347.90;99.90;;;6.80;93.60;;;;;;5011496;28;20208;-65
2021/01/22 10:23:52;;;;;;;310.07;96.43;;;6.80;93.50;;;;;;5013199;28;20208;-65
2021/01/22 10:26:21;;;;;;;300.47;100.37;;;6.80;93.50;;;;;;5012532;28;20299;-66
2021/01/22 10:28:49;;;;;;;295.77;98.10;;;6.80;93.50;;;;;;5012708;28;20307;-65
2021/01/22 10:31:16;;;;;;;373.57;101.07;;;6.80;93.50;;;;;;5010788;28;20208;-65
2021/01/22 10:33:45;;;;;;;307.30;98.03;;;6.90;93.40;;;;;;5027877;28;20216;-65
2021/01/22 10:36:12;;;;;;;396.77;100.30;;;6.80;93.30;;;;;;5011832;28;20273;-66
2021/01/22 10:38:40;;;;;;;269.03;92.43;;;6.80;93.30;;;;;;5012649;28;20258;-67
2021/01/22 10:41:08;;;;;;;342.00;98.27;;;6.80;93.30;;;;;;5011508;28;20294;-70
2021/01/22 10:43:35;;;;;;;251.33;91.37;;;6.80;93.40;;;;;;5012338;28;20199;-67
2021/01/22 10:46:02;;;;;;;347.27;97.13;;;6.90;93.30;;;;;;5011751;28;20250;-66
2021/01/22 10:48:29;;;;;;;255.03;92.53;;;6.90;93.30;;;;;;5012282;28;20207;-64
2021/01/22 10:50:56;;;;;;;280.23;94.17;;;6.90;93.30;;;;;;5012058;28;20303;-65
2021/01/22 10:53:24;;;;;;;338.53;95.17;;;6.90;93.30;;;;;;5011745;28;20274;-67
2021/01/22 10:55:52;;;;;;;271.20;93.20;;;6.90;93.20;;;;;;5012404;28;20239;-66
2021/01/22 10:58:18;;;;;;;268.17;93.03;;;7.00;93.20;;;;;;5011294;28;20219;-65
2021/01/22 11:00:45;;;;;;;279.97;96.00;;;6.90;93.20;;;;;;5012254;28;20295;-65
2021/01/22 11:03:11;;;;;;;272.10;92.00;;;6.90;93.20;;;;;;5011985;28;20212;-64
2021/01/22 11:05:38;;;;;;;265.43;91.50;;;6.90;93.20;;;;;;5012084;28;20732;-65
2021/01/22 11:08:05;;;;;;;267.97;93.40;;;6.90;93.20;;;;;;5012299;28;20208;-66
2021/01/22 11:10:32;;;;;;;256.90;92.77;;;6.90;93.20;;;;;;5012369;28;20212;-67
2021/01/22 11:12:59;;;;;;;254.27;90.80;;;7.00;93.30;;;;;;5012472;28;20298;-66
2021/01/22 11:15:27;;;;;;;234.00;87.57;;;7.00;93.20;;;;;;5006519;28;20285;-68
2021/01/22 11:17:54;;;;;;;239.27;86.83;;;7.00;93.30;;;;;;5010495;28;20241;-68
2021/01/22 11:20:21;;;;;;;233.23;85.80;;;7.10;93.30;;;;;;5012912;28;20205;-69
2021/01/22 11:22:48;;;;;;;217.23;84.67;;;7.00;93.20;;;;;;5027146;28;20219;-66
2021/01/22 11:25:17;;;;;;;222.70;84.73;;;7.00;93.20;;;;;;5027557;28;20211;-68
2021/01/22 11:27:44;;;;;;;223.30;85.93;;;7.00;93.20;;;;;;5012219;28;20211;-66
2021/01/22 11:30:11;;;;;;;226.73;85.10;;;7.00;93.20;;;;;;5010866;28;20247;-67
2021/01/22 11:32:38;;;;;;;234.73;89.03;;;7.10;93.30;;;;;;5005977;28;20207;-66
2021/01/22 11:35:09;;;;;;;208.63;85.50;;;7.10;93.20;;;;;;5011538;28;20228;-66
2021/01/22 11:37:47;;;;;;;253.93;88.97;;;7.10;93.20;;;;;;5027843;28;20408;-66
2021/01/22 11:40:15;;;;;;;246.83;86.10;;;7.10;93.10;;;;;;5008976;28;20270;-67
2021/01/22 11:42:43;;;;;;;269.97;91.93;;;7.10;93.10;;;;;;5006890;28;20428;-67
2021/01/22 11:45:11;;;;;;;286.67;90.57;;;7.10;93.00;;;;;;5011443;28;20219;-70
2021/01/22 11:47:38;;;;;;;323.27;93.17;;;7.10;93.00;;;;;;5009531;28;20640;-66
2021/01/22 11:50:06;;;;;;;316.87;95.13;;;7.10;92.90;;;;;;5012303;28;20208;-67
2021/01/22 11:52:33;;;;;;;256.23;89.93;;;7.00;92.90;;;;;;5012162;28;20212;-67
2021/01/22 11:55:05;;;;;;;258.20;91.70;;;7.00;92.90;;;;;;5010173;28;20440;-66
2021/01/22 11:57:32;;;;;;;235.50;87.50;;;7.00;93.00;;;;;;5027257;28;20290;-65
2021/01/22 11:59:59;;;;;;;225.17;84.80;;;7.00;93.00;;;;;;5027399;28;20628;-66
2021/01/22 12:02:26;;;;;;;230.23;83.23;;;7.00;93.00;;;;;;5019703;28;20199;-66
2021/01/22 12:04:53;;;;;;;215.77;85.77;;;7.00;93.00;;;;;;5014693;28;20227;-66
2021/01/22 12:07:20;;;;;;;221.57;84.67;;;7.00;93.00;;;;;;5015710;28;20208;-65
2021/01/22 12:09:46;;;;;;;214.90;83.80;;;7.00;93.10;;;;;;5014674;28;20238;-65
2021/01/22 12:12:13;;;;;;;233.47;86.30;;;7.00;93.20;;;;;;5015646;28;20274;-66
2021/01/22 12:14:40;;;;;;;224.20;84.73;;;7.00;93.20;;;;;;5014483;28;20231;-64
2021/01/22 12:17:07;;;;;;;252.73;86.87;;;7.00;93.20;;;;;;5030266;28;20212;-65
2021/01/22 12:19:35;;;;;;;260.93;89.27;;;7.00;93.20;;;;;;5014747;28;20218;-65
2021/01/22 12:22:02;;;;;;;238.97;85.20;;;7.00;93.20;;;;;;5014276;28;20208;-65
2021/01/22 12:24:28;;;;;;;263.90;88.63;;;7.00;93.30;;;;;;5030500;28;20659;-64
2021/01/22 12:26:55;;;;;;;265.13;89.03;;;7.00;93.30;;;;;;5008455;28;20215;-65
2021/01/22 12:29:22;;;;;;;244.30;88.07;;;7.00;93.20;;;;;;5014593;28;20222;-65
2021/01/22 12:31:49;;;;;;;294.63;91.50;;;7.00;93.30;;;;;;5013984;28;20227;-65
2021/01/22 12:34:16;;;;;;;310.23;92.83;;;6.90;93.30;;;;;;5014306;28;20675;-65